Little Valley, California
Current Conditions -  °F | °C
As of 5:55 PM on Saturday 20 Dec 2014 (Local Time) from KAAT Reporting Station
Light Rain Light Rain  
Wind Chill: 41°   Ceiling: 2100
Heat Index: 41°   Visibility: 10mi
Dew Point: 39°   Wind: 0mph
Humidity: 93%   Direction: NA
Pressure: 30.07"   Gusts: NA
Location:  40.9954°N, 121.135°W
Report Text: KAAT 210155Z AUTO 00000KT 10SM -RA OVC021 05/04 A3007 RMK AO2 RAE02B28 SLP186 P0000 T00500039
Loading
Personal Weather Stations






























Interactive Weather Map New forecast layout! Learn more

10-Day Weather Forecast

Advertisements
Track Severe Weather on mobile